Warning: Javascript must be enabled to use all the features on this page!


Page Loading - Please Wait...

Click to hideNews Bulletins

Peak Streamflow for the Nation

USGS 11303000 STANISLAUS R A RIPON CA

Stanislaus County, California
Hydrologic Unit Code 18040010
Latitude  37°43'47", Longitude 121°06'34" NAD27
Drainage area 1,075  square miles
Gage datum 0.72 feet above NGVD29
Output formats
Table
Graph
Tab-separated file
peakfq (watstore) format
Reselect output format
Water
Year
Date Gage
Height
(feet)
Stream-
flow
(cfs)
1938 1938-02-12 64.40  
1941 1941-05-13 56.43 8,8106
1942 1942-05-27 56.65 9,9406
1943 1943-03-11 59.83 19,7006
1944 1944-05-24 50.26 3,6006
1945 1945-05-09 55.71 8,5306
1946 1946-05-08 54.04 5,9906
1947 1947-05-05 48.08 2,7606
1948 1948-05-29 54.57 6,4906
1949 1949-05-16 53.47 5,4406
1950 1950-05-29 54.36 6,2206
1951 1950-11-21 62.78 48,5006
1952 1952-05-29 56.58 10,9006
1953 1953-04-29 56.51 10,7006
1954 1954-05-11 52.00 4,6006
1955 1955-05-31 47.61 2,8306
1956 1955-12-24 63.25 62,5006
1957 1957-05-22 51.58 4,8106
1958 1958-04-04 57.48 14,6006
1959 1959-03-05 43.66 1,5706
1960 1960-02-11 39.82 5716
1961 1961-01-11 38.37 2596
1962 1962-06-04 50.19 3,7406
1963 1963-05-11 55.80 8,1306
1964 1964-01-23 43.24 1,4006
1965 1964-12-25 62.26 32,8006
1966 1965-12-30 46.17 2,2806
1967 1967-05-25 56.19 7,8906
1968 1968-04-02 43.69 1,5306
1969 1969-01-22 60.43 26,8006
1970 1970-01-23 58.44 15,4006
1971 1971-06-28 48.97 3,4806
1972 1971-12-28 44.61 2,0906
1973 1973-06-02 50.71 4,1806
1974 1974-04-03 52.73 5,2106
1975 1975-06-03 55.37 7,8206
1976 1975-10-24 42.58 1,4806
1977 1976-10-04 36.04 1066
1978 1978-05-26 52.79 4,8406
1979 1979-02-24 51.33 4,1806
1980 1980-01-18 53.57 4,8606
1981 1981-04-20 43.64 1,6606
1982 1982-01-06 48.22 3,0206
1983 1983-04-26 54.28 5,2606
1984 1983-12-10 54.25 5,7006
1985 1984-10-19 44.45 1,8106
1986 1986-03-16 55.33 6,7606
1987 1987-03-07 45.50 2,2106
1988 1988-03-28 41.99 1,2706
1989 1989-03-29 42.21 1,3206
1990 1990-03-14 41.58 1,1206
1991 1991-05-21 41.29 1,0406
1992 1992-02-16 42.70 1,3206
1993 1993-01-19 46.64 2,5006
1994 1994-05-22 42.75 1,3306
1995 1995-03-12 46.97 2,6006
1996 1996-03-13 51.10 3,9306
1997 1997-02-28 55.772 7,3206
1998 1998-02-09 53.98 5,1706
1999 1999-02-24 51.60 4,3006
2000 2000-03-06 50.67 3,9106
2001 2001-05-07 43.93 1,6806
2002 2002-04-22 43.32 1,5006
2003 2003-05-03 43.08 1,4306
2004 2004-05-19 42.82 1,3506
2005 2005-05-24 43.46 1,5406
2006 2006-01-07 54.87 6,2706
2007 2006-10-19 44.41 1,8206
2008 2008-03-31 43.22 1,4706
2009 2009-05-02 42.31 1,2406
2010 2009-10-24 42.69 1,3406
2011 2011-04-17 47.94 2,9006
2012 2011-10-01 47.46 2,7506
2013 2013-05-11 48.13 3,0106
2014 2014-05-01 46.91 2,5806
2015 2015-03-28 42.66 1,3106
2016 2016-04-27 47.89 2,8806
2017 2017-05-21 53.92 5,4406
2018 2018-05-26 48.64 2,7706
2019 2019-03-09 53.55 5,1806
?
  Peak Gage-Height Qualification Codes.
?
  Peak Streamflow Qualification Codes.